Strona główna
METAR-TAF:

METAR-TAF

Lotnisko :

Danville, Kentucky, Stany Zjednoczone

Szerokość geograficzna: 37-34-40N, Długość geograficzna: 084-46-11W, wysokość: 312 m

Aktualna obserwacja pogody

Raport powstał 33 minut temu, godzina 13:35 UTC
Cisza
Temperatura 1°C
Wilgotność 86%
Ciśnienie 1020 hPa
Widzialność: 16.1 km
Zachmurzenie całkowite na wysokości 1100 ft

METAR: KDVK 151335Z AUTO 00000KT 10SM OVC011 01/M01 A3011 RMK AO2

czas: 09:08 (14:08 UTC)


TAF: brakujący

Obserwacja i prognoza pogody dla ponad 4000 lotnisk (raport METAR i TAF).

Dostępne stacje oznaczono żółtymi i czerwonymi punktami na mapie.

Najedź kursorem aby zobaczyć nazwę stacji.

Kliknij aby zobaczyć obserwacje i prognozy pogody.

Aby zmienić mapę: kliknij na zielony przycisk z czarnym krzyżykiem, aby powiększyć; na zielony przycisk z myślnikiem, aby pomniejszyć; na zielone strzałki, aby przejść do map sąsiednich.


METAR-TAF: